TAF PAOT
PAOT 072331Z 0800/0824 28013KT 4SM -SN BR FEW016 OVC022 FM082000 15006KT P6SM SCT030=
METAR PAOT
WC PAOT
WS PAOT
WV PAOT